createdAt,value
2019-01-04T05:14:41.107Z,95168.01
2019-01-04T05:17:09.573Z,95161.78
2019-01-04T05:19:36.708Z,95159.56
2019-01-04T05:22:04.873Z,95166.47
2019-01-04T05:24:32.014Z,95173.24
2019-01-04T05:26:59.129Z,95180.45
2019-01-04T18:33:04.592Z,95563.61
2019-01-04T18:35:32.293Z,95563.63
2019-01-04T18:37:59.959Z,95569.76
2019-01-04T18:40:27.707Z,95578.82
2019-01-04T18:42:55.994Z,95570.78
2019-01-04T18:45:23.619Z,95563.58
2019-01-04T18:47:51.392Z,95552.93
2019-01-04T18:50:21.781Z,95536.67
2019-01-04T18:52:49.613Z,95558.05
2019-01-04T18:55:17.276Z,95557.44
2019-01-04T18:57:45.261Z,95566.08
2019-01-04T19:00:13.195Z,95564.42
2019-01-04T19:02:41.771Z,95557.81
2019-01-04T19:05:09.483Z,95576.16
2019-01-04T19:07:37.077Z,95576.39
2019-01-04T19:10:06.312Z,95574.23
2019-01-04T19:12:33.766Z,95574.52
2019-01-04T19:15:01.514Z,95569.55
2019-01-04T19:17:29.228Z,95584.98
2019-01-04T19:19:56.884Z,95578.22
2019-01-04T19:22:24.995Z,95568.05
2019-01-04T19:24:53.144Z,95563.63
2019-01-04T19:27:20.948Z,95557.11
2019-01-04T19:29:48.463Z,95563.42
2019-01-04T19:32:16.840Z,95563.91
2019-01-04T19:34:44.617Z,95573.41
2019-01-04T19:37:12.249Z,95568.91
2019-01-04T19:39:39.862Z,95569.63
2019-01-04T19:42:07.742Z,95577.08
2019-01-04T19:44:36.875Z,95569.28
2019-01-04T19:47:04.743Z,95575.11
2019-01-04T19:49:32.513Z,95571.67
2019-01-04T19:52:00.550Z,95576.56
2019-01-04T19:54:28.097Z,95567.65
2019-01-04T19:56:55.901Z,95570.73
2019-01-04T19:59:24.208Z,95572.48
2019-01-04T20:01:51.757Z,95572.48
2019-01-04T20:04:27.431Z,95566.98
2019-01-04T20:07:54.047Z,95570.81
2019-01-04T20:11:46.671Z,95570.36
2019-01-04T20:15:29.882Z,95559.23
2019-01-04T20:18:23.585Z,95566.48
2019-01-04T20:21:09.868Z,95561.31
2019-01-04T20:24:09.155Z,95567.11
2019-01-04T20:27:14.245Z,95567.00
2019-01-04T20:30:01.496Z,95571.63
2019-01-04T20:33:01.005Z,95583.38
2019-01-04T20:36:01.180Z,95562.80
2019-01-04T20:38:46.979Z,95560.45
2019-01-04T20:41:40.210Z,95558.09
2019-01-04T20:44:39.747Z,95562.87
2019-01-04T20:47:38.935Z,95566.88
2019-01-04T20:50:28.849Z,95561.53
2019-01-04T20:53:21.869Z,95551.31
2019-01-04T20:56:07.835Z,95556.47
2019-01-04T20:58:54.857Z,95556.38
2019-01-04T21:01:50.926Z,95557.17
2019-01-04T21:04:35.547Z,95562.25
2019-01-04T21:07:22.525Z,95565.30
2019-01-04T21:10:15.678Z,95565.30
2019-01-04T21:13:01.743Z,95556.55
2019-01-04T21:15:57.483Z,95563.02
2019-01-04T21:18:48.568Z,95560.10
2019-01-04T21:21:29.583Z,95561.77
2019-01-04T21:24:15.610Z,95560.81
2019-01-04T21:27:01.249Z,95559.03
2019-01-04T21:29:46.892Z,95564.72
2019-01-04T21:32:31.813Z,95562.23
2019-01-04T21:35:17.782Z,95583.20
2019-01-04T21:38:04.694Z,95549.55
2019-01-04T21:41:00.170Z,95549.72
2019-01-04T21:43:53.255Z,95554.34
2019-01-04T21:46:55.179Z,95550.08
2019-01-04T21:49:47.946Z,95551.89
2019-01-04T21:52:40.808Z,95546.09
2019-01-04T21:55:26.381Z,95538.30
2019-01-04T21:58:16.061Z,95526.33
2019-01-04T22:00:58.255Z,95526.56
2019-01-04T22:03:44.083Z,95520.42
2019-01-04T22:06:29.780Z,95519.95
2019-01-04T22:09:25.833Z,95514.02
2019-01-04T22:12:07.315Z,95501.70
2019-01-04T22:14:52.603Z,95513.59
2019-01-04T22:17:52.223Z,95507.05
2019-01-04T22:20:37.788Z,95505.77
2019-01-04T22:23:23.558Z,95493.79
2019-01-04T22:26:16.287Z,95495.38
2019-01-04T22:29:03.293Z,95494.23
2019-01-04T22:32:00.580Z,95490.34
2019-01-04T22:34:44.522Z,95484.81
2019-01-04T22:37:31.659Z,95485.77
2019-01-04T22:40:21.556Z,95481.22
2019-01-04T22:43:11.553Z,95474.61
2019-01-04T22:46:13.641Z,95472.10
2019-01-04T22:49:12.656Z,95478.27
2019-01-04T22:52:05.983Z,95471.17
2019-01-04T22:54:52.980Z,95472.03
2019-01-04T22:57:39.997Z,95469.97
2019-01-04T23:00:43.716Z,95473.08
2019-01-04T23:03:36.704Z,95472.65
2019-01-04T23:06:22.384Z,95474.28
2019-01-04T23:09:15.300Z,95468.91
2019-01-04T23:12:00.784Z,95466.49
2019-01-04T23:14:56.625Z,95468.55
2019-01-04T23:17:47.182Z,95473.13
2019-01-04T23:20:43.487Z,95471.70
2019-01-04T23:23:22.535Z,95478.11
2019-01-04T23:26:08.586Z,95481.84
2019-01-04T23:28:58.276Z,95479.04
2019-01-04T23:31:48.322Z,95483.09
2019-01-04T23:34:44.091Z,95482.94
2019-01-04T23:37:29.823Z,95475.06
2019-01-04T23:40:15.471Z,95468.94
2019-01-04T23:43:01.081Z,95466.61
2019-01-04T23:46:01.649Z,95454.27
2019-01-04T23:49:06.951Z,95451.41
2019-01-04T23:51:46.852Z,95451.72
2019-01-04T23:54:33.990Z,95447.12
2019-01-04T23:57:33.386Z,95450.20
